sensor_id;sensor_type;location;lat;lon;timestamp;P1;durP1;ratioP1;P2;durP2;ratioP2
34035;SDS011;63481;52.588;22.472;2022-12-15T00:00:35;33.28;;;19.77;;
34035;SDS011;63481;52.588;22.472;2022-12-15T00:01:44;33.53;;;19.07;;
34035;SDS011;63481;52.588;22.472;2022-12-15T00:02:53;30.75;;;19.00;;
34035;SDS011;63481;52.588;22.472;2022-12-15T00:04:03;31.52;;;18.80;;
34035;SDS011;63481;52.588;22.472;2022-12-15T00:06:07;34.08;;;21.14;;
34035;SDS011;63481;52.588;22.472;2022-12-15T00:07:17;34.03;;;20.65;;
34035;SDS011;63481;52.588;22.472;2022-12-15T00:08:25;32.55;;;18.92;;
34035;SDS011;63481;52.588;22.472;2022-12-15T00:09:35;34.27;;;20.15;;
34035;SDS011;63481;52.588;22.472;2022-12-15T00:10:44;32.63;;;19.95;;
34035;SDS011;63481;52.588;22.472;2022-12-15T00:11:53;31.52;;;19.30;;
34035;SDS011;63481;52.588;22.472;2022-12-15T00:13:02;34.27;;;18.37;;
34035;SDS011;63481;52.588;22.472;2022-12-15T00:14:12;32.53;;;19.10;;
34035;SDS011;63481;52.588;22.472;2022-12-15T00:15:22;34.20;;;21.12;;
34035;SDS011;63481;52.588;22.472;2022-12-15T00:16:30;31.30;;;18.75;;
34035;SDS011;63481;52.588;22.472;2022-12-15T00:17:39;32.53;;;18.98;;
34035;SDS011;63481;52.588;22.472;2022-12-15T00:18:47;34.92;;;20.00;;
34035;SDS011;63481;52.588;22.472;2022-12-15T00:19:55;34.63;;;19.82;;
34035;SDS011;63481;52.588;22.472;2022-12-15T00:21:04;30.32;;;18.57;;
34035;SDS011;63481;52.588;22.472;2022-12-15T00:22:13;33.48;;;20.16;;
34035;SDS011;63481;52.588;22.472;2022-12-15T00:23:21;33.28;;;19.10;;
34035;SDS011;63481;52.588;22.472;2022-12-15T00:24:29;33.28;;;19.23;;
34035;SDS011;63481;52.588;22.472;2022-12-15T00:25:37;31.98;;;18.56;;
34035;SDS011;63481;52.588;22.472;2022-12-15T00:26:45;32.70;;;19.00;;
34035;SDS011;63481;52.588;22.472;2022-12-15T00:27:55;32.05;;;19.45;;
34035;SDS011;63481;52.588;22.472;2022-12-15T00:29:04;33.35;;;19.48;;
34035;SDS011;63481;52.588;22.472;2022-12-15T00:30:12;35.28;;;18.38;;
34035;SDS011;63481;52.588;22.472;2022-12-15T00:31:20;30.50;;;18.70;;
34035;SDS011;63481;52.588;22.472;2022-12-15T00:32:29;34.64;;;20.08;;
34035;SDS011;63481;52.588;22.472;2022-12-15T00:33:37;35.78;;;19.52;;
34035;SDS011;63481;52.588;22.472;2022-12-15T00:34:45;28.40;;;18.07;;
34035;SDS011;63481;52.588;22.472;2022-12-15T00:35:53;35.75;;;18.67;;
34035;SDS011;63481;52.588;22.472;2022-12-15T00:37:03;30.62;;;18.48;;
34035;SDS011;63481;52.588;22.472;2022-12-15T00:38:12;31.75;;;18.32;;
34035;SDS011;63481;52.588;22.472;2022-12-15T00:39:22;30.75;;;16.70;;
34035;SDS011;63481;52.588;22.472;2022-12-15T00:40:12;31.80;;;19.07;;
34035;SDS011;63481;52.588;22.472;2022-12-15T00:41:52;31.50;;;16.75;;
34035;SDS011;63481;52.588;22.472;2022-12-15T00:43:34;31.60;;;17.67;;
34035;SDS011;63481;52.588;22.472;2022-12-15T00:44:25;32.63;;;18.87;;
34035;SDS011;63481;52.588;22.472;2022-12-15T00:45:15;29.42;;;18.20;;
34035;SDS011;63481;52.588;22.472;2022-12-15T00:46:06;29.82;;;18.07;;
34035;SDS011;63481;52.588;22.472;2022-12-15T00:47:15;31.85;;;18.57;;
34035;SDS011;63481;52.588;22.472;2022-12-15T00:48:05;31.14;;;19.16;;
34035;SDS011;63481;52.588;22.472;2022-12-15T00:48:56;31.27;;;19.23;;
34035;SDS011;63481;52.588;22.472;2022-12-15T00:49:47;31.02;;;19.02;;
34035;SDS011;63481;52.588;22.472;2022-12-15T00:50:56;33.55;;;18.80;;
34035;SDS011;63481;52.588;22.472;2022-12-15T00:51:47;29.65;;;17.80;;
34035;SDS011;63481;52.588;22.472;2022-12-15T00:52:56;32.38;;;19.45;;
34035;SDS011;63481;52.588;22.472;2022-12-15T00:54:05;30.23;;;19.35;;
34035;SDS011;63481;52.588;22.472;2022-12-15T00:55:14;31.93;;;18.92;;
34035;SDS011;63481;52.588;22.472;2022-12-15T00:56:26;31.45;;;17.67;;
34035;SDS011;63481;52.588;22.472;2022-12-15T00:57:35;29.77;;;18.35;;
34035;SDS011;63481;52.588;22.472;2022-12-15T00:58:44;32.35;;;18.73;;
34035;SDS011;63481;52.588;22.472;2022-12-15T00:59:52;30.65;;;17.60;;
34035;SDS011;63481;52.588;22.472;2022-12-15T01:01:07;33.30;;;18.55;;
34035;SDS011;63481;52.588;22.472;2022-12-15T01:02:16;30.27;;;17.85;;
34035;SDS011;63481;52.588;22.472;2022-12-15T01:03:25;30.88;;;19.25;;
34035;SDS011;63481;52.588;22.472;2022-12-15T01:04:33;32.95;;;18.17;;
34035;SDS011;63481;52.588;22.472;2022-12-15T01:05:42;29.52;;;18.62;;
34035;SDS011;63481;52.588;22.472;2022-12-15T01:06:50;29.15;;;17.02;;
34035;SDS011;63481;52.588;22.472;2022-12-15T01:08:01;28.77;;;16.85;;
34035;SDS011;63481;52.588;22.472;2022-12-15T01:09:11;29.48;;;17.20;;
34035;SDS011;63481;52.588;22.472;2022-12-15T01:10:20;28.17;;;15.63;;
34035;SDS011;63481;52.588;22.472;2022-12-15T01:11:28;30.32;;;18.23;;
34035;SDS011;63481;52.588;22.472;2022-12-15T01:12:36;29.23;;;17.82;;
34035;SDS011;63481;52.588;22.472;2022-12-15T01:13:45;29.62;;;16.68;;
34035;SDS011;63481;52.588;22.472;2022-12-15T01:14:53;29.90;;;18.15;;
34035;SDS011;63481;52.588;22.472;2022-12-15T01:16:08;24.47;;;14.58;;
34035;SDS011;63481;52.588;22.472;2022-12-15T01:17:17;30.23;;;17.98;;
34035;SDS011;63481;52.588;22.472;2022-12-15T01:18:26;26.85;;;16.87;;
34035;SDS011;63481;52.588;22.472;2022-12-15T01:19:34;28.55;;;17.25;;
34035;SDS011;63481;52.588;22.472;2022-12-15T01:20:43;28.98;;;17.27;;
34035;SDS011;63481;52.588;22.472;2022-12-15T01:21:33;29.80;;;18.35;;
34035;SDS011;63481;52.588;22.472;2022-12-15T01:22:26;29.12;;;18.17;;
34035;SDS011;63481;52.588;22.472;2022-12-15T01:23:16;26.50;;;16.15;;
34035;SDS011;63481;52.588;22.472;2022-12-15T01:24:08;28.80;;;17.25;;
34035;SDS011;63481;52.588;22.472;2022-12-15T01:24:59;29.40;;;17.37;;
34035;SDS011;63481;52.588;22.472;2022-12-15T01:25:50;26.05;;;16.10;;
34035;SDS011;63481;52.588;22.472;2022-12-15T01:26:44;29.10;;;17.65;;
34035;SDS011;63481;52.588;22.472;2022-12-15T01:27:36;29.87;;;17.48;;
34035;SDS011;63481;52.588;22.472;2022-12-15T01:28:27;30.62;;;18.48;;
34035;SDS011;63481;52.588;22.472;2022-12-15T01:29:17;25.80;;;16.95;;
34035;SDS011;63481;52.588;22.472;2022-12-15T01:30:08;26.20;;;16.67;;
34035;SDS011;63481;52.588;22.472;2022-12-15T01:30:59;28.20;;;17.55;;
34035;SDS011;63481;52.588;22.472;2022-12-15T01:31:54;31.00;;;17.55;;
34035;SDS011;63481;52.588;22.472;2022-12-15T01:32:45;28.70;;;17.60;;
34035;SDS011;63481;52.588;22.472;2022-12-15T01:33:38;27.85;;;16.75;;
34035;SDS011;63481;52.588;22.472;2022-12-15T01:34:30;28.65;;;18.23;;
34035;SDS011;63481;52.588;22.472;2022-12-15T01:35:20;28.92;;;17.23;;
34035;SDS011;63481;52.588;22.472;2022-12-15T01:36:10;27.02;;;17.10;;
34035;SDS011;63481;52.588;22.472;2022-12-15T01:37:01;27.20;;;17.27;;
34035;SDS011;63481;52.588;22.472;2022-12-15T01:37:51;28.20;;;17.50;;
34035;SDS011;63481;52.588;22.472;2022-12-15T01:38:41;29.18;;;17.42;;
34035;SDS011;63481;52.588;22.472;2022-12-15T01:39:31;28.12;;;18.12;;
34035;SDS011;63481;52.588;22.472;2022-12-15T01:40:23;30.50;;;16.80;;
34035;SDS011;63481;52.588;22.472;2022-12-15T01:41:32;30.24;;;17.62;;
34035;SDS011;63481;52.588;22.472;2022-12-15T01:43:19;30.46;;;15.94;;
34035;SDS011;63481;52.588;22.472;2022-12-15T01:44:18;27.26;;;16.68;;
34035;SDS011;63481;52.588;22.472;2022-12-15T01:46:20;28.47;;;17.30;;
34035;SDS011;63481;52.588;22.472;2022-12-15T01:47:11;27.37;;;16.48;;
34035;SDS011;63481;52.588;22.472;2022-12-15T01:48:04;26.10;;;16.87;;
34035;SDS011;63481;52.588;22.472;2022-12-15T01:48:58;26.33;;;16.97;;
34035;SDS011;63481;52.588;22.472;2022-12-15T01:49:52;28.44;;;17.34;;
34035;SDS011;63481;52.588;22.472;2022-12-15T01:50:50;27.60;;;17.44;;
34035;SDS011;63481;52.588;22.472;2022-12-15T01:51:38;30.64;;;17.38;;
34035;SDS011;63481;52.588;22.472;2022-12-15T01:52:31;27.27;;;16.73;;
34035;SDS011;63481;52.588;22.472;2022-12-15T01:53:20;27.20;;;16.32;;
34035;SDS011;63481;52.588;22.472;2022-12-15T01:54:12;26.68;;;16.66;;
34035;SDS011;63481;52.588;22.472;2022-12-15T01:55:14;25.98;;;16.88;;
34035;SDS011;63481;52.588;22.472;2022-12-15T01:56:07;29.26;;;17.80;;
34035;SDS011;63481;52.588;22.472;2022-12-15T01:56:59;27.30;;;16.60;;
34035;SDS011;63481;52.588;22.472;2022-12-15T01:58:02;28.56;;;16.32;;
34035;SDS011;63481;52.588;22.472;2022-12-15T01:58:51;27.66;;;16.78;;
34035;SDS011;63481;52.588;22.472;2022-12-15T01:59:44;29.26;;;17.36;;
34035;SDS011;63481;52.588;22.472;2022-12-15T02:00:39;27.42;;;16.35;;
34035;SDS011;63481;52.588;22.472;2022-12-15T02:01:29;28.00;;;17.27;;
34035;SDS011;63481;52.588;22.472;2022-12-15T02:02:21;29.70;;;18.23;;
34035;SDS011;63481;52.588;22.472;2022-12-15T02:03:13;28.10;;;17.80;;
34035;SDS011;63481;52.588;22.472;2022-12-15T02:04:03;28.87;;;17.80;;
34035;SDS011;63481;52.588;22.472;2022-12-15T02:04:54;25.27;;;16.35;;
34035;SDS011;63481;52.588;22.472;2022-12-15T02:05:46;29.38;;;17.72;;
34035;SDS011;63481;52.588;22.472;2022-12-15T02:06:37;28.57;;;17.52;;
34035;SDS011;63481;52.588;22.472;2022-12-15T02:07:27;28.12;;;17.05;;
34035;SDS011;63481;52.588;22.472;2022-12-15T02:08:17;27.86;;;17.22;;
34035;SDS011;63481;52.588;22.472;2022-12-15T02:09:08;28.80;;;18.02;;
34035;SDS011;63481;52.588;22.472;2022-12-15T02:10:00;24.36;;;16.02;;
34035;SDS011;63481;52.588;22.472;2022-12-15T02:15:55;28.20;;;16.25;;
34035;SDS011;63481;52.588;22.472;2022-12-15T02:16:48;26.82;;;16.75;;
34035;SDS011;63481;52.588;22.472;2022-12-15T02:19:04;27.40;;;16.30;;
34035;SDS011;63481;52.588;22.472;2022-12-15T02:21:09;26.98;;;16.36;;
34035;SDS011;63481;52.588;22.472;2022-12-15T02:27:37;27.00;;;16.22;;
34035;SDS011;63481;52.588;22.472;2022-12-15T02:30:03;25.90;;;15.04;;
34035;SDS011;63481;52.588;22.472;2022-12-15T02:31:05;28.66;;;17.10;;
34035;SDS011;63481;52.588;22.472;2022-12-15T02:32:17;28.70;;;16.56;;
34035;SDS011;63481;52.588;22.472;2022-12-15T02:33:19;30.18;;;17.26;;
34035;SDS011;63481;52.588;22.472;2022-12-15T02:34:10;29.20;;;16.90;;
34035;SDS011;63481;52.588;22.472;2022-12-15T02:35:02;26.86;;;16.26;;
34035;SDS011;63481;52.588;22.472;2022-12-15T02:36:05;29.24;;;17.62;;
34035;SDS011;63481;52.588;22.472;2022-12-15T02:36:58;27.87;;;16.65;;
34035;SDS011;63481;52.588;22.472;2022-12-15T02:37:51;31.44;;;18.52;;
34035;SDS011;63481;52.588;22.472;2022-12-15T02:38:42;27.22;;;17.14;;
34035;SDS011;63481;52.588;22.472;2022-12-15T02:39:33;26.06;;;16.80;;
34035;SDS011;63481;52.588;22.472;2022-12-15T02:40:23;26.05;;;16.52;;
34035;SDS011;63481;52.588;22.472;2022-12-15T02:42:28;26.30;;;16.14;;
34035;SDS011;63481;52.588;22.472;2022-12-15T02:43:20;27.32;;;17.18;;
34035;SDS011;63481;52.588;22.472;2022-12-15T02:44:13;26.02;;;16.15;;
34035;SDS011;63481;52.588;22.472;2022-12-15T02:45:11;26.55;;;15.93;;
34035;SDS011;63481;52.588;22.472;2022-12-15T02:48:25;24.86;;;15.20;;
34035;SDS011;63481;52.588;22.472;2022-12-15T02:51:59;25.32;;;15.56;;
34035;SDS011;63481;52.588;22.472;2022-12-15T02:54:06;26.04;;;15.08;;
34035;SDS011;63481;52.588;22.472;2022-12-15T02:57:57;25.52;;;15.80;;
34035;SDS011;63481;52.588;22.472;2022-12-15T02:59:13;25.14;;;15.00;;
34035;SDS011;63481;52.588;22.472;2022-12-15T03:00:07;29.45;;;17.17;;
34035;SDS011;63481;52.588;22.472;2022-12-15T03:01:00;23.76;;;14.54;;
34035;SDS011;63481;52.588;22.472;2022-12-15T03:01:56;28.96;;;17.22;;
34035;SDS011;63481;52.588;22.472;2022-12-15T03:02:49;27.22;;;15.54;;
34035;SDS011;63481;52.588;22.472;2022-12-15T03:03:41;25.64;;;16.82;;
34035;SDS011;63481;52.588;22.472;2022-12-15T03:04:34;26.92;;;16.14;;
34035;SDS011;63481;52.588;22.472;2022-12-15T03:05:24;31.60;;;17.35;;
34035;SDS011;63481;52.588;22.472;2022-12-15T03:06:18;27.70;;;17.12;;
34035;SDS011;63481;52.588;22.472;2022-12-15T03:07:08;24.85;;;16.05;;
34035;SDS011;63481;52.588;22.472;2022-12-15T03:07:58;27.00;;;16.65;;
34035;SDS011;63481;52.588;22.472;2022-12-15T03:08:49;28.70;;;17.64;;
34035;SDS011;63481;52.588;22.472;2022-12-15T03:09:39;28.32;;;17.32;;
34035;SDS011;63481;52.588;22.472;2022-12-15T03:10:30;26.84;;;17.00;;
34035;SDS011;63481;52.588;22.472;2022-12-15T03:11:21;25.48;;;15.95;;
34035;SDS011;63481;52.588;22.472;2022-12-15T03:12:11;26.56;;;16.54;;
34035;SDS011;63481;52.588;22.472;2022-12-15T03:13:01;27.27;;;16.70;;
34035;SDS011;63481;52.588;22.472;2022-12-15T03:13:51;27.50;;;17.00;;
34035;SDS011;63481;52.588;22.472;2022-12-15T03:14:43;28.82;;;17.02;;
34035;SDS011;63481;52.588;22.472;2022-12-15T03:15:33;25.60;;;16.65;;
34035;SDS011;63481;52.588;22.472;2022-12-15T03:16:23;26.52;;;17.20;;
34035;SDS011;63481;52.588;22.472;2022-12-15T03:17:13;22.50;;;14.10;;
34035;SDS011;63481;52.588;22.472;2022-12-15T03:18:03;29.60;;;17.42;;
34035;SDS011;63481;52.588;22.472;2022-12-15T03:18:55;27.70;;;16.56;;
34035;SDS011;63481;52.588;22.472;2022-12-15T03:20:38;27.52;;;16.60;;
34035;SDS011;63481;52.588;22.472;2022-12-15T03:21:28;27.68;;;16.78;;
34035;SDS011;63481;52.588;22.472;2022-12-15T03:22:18;28.57;;;16.67;;
34035;SDS011;63481;52.588;22.472;2022-12-15T03:23:08;25.60;;;16.58;;
34035;SDS011;63481;52.588;22.472;2022-12-15T03:23:58;28.65;;;17.15;;
34035;SDS011;63481;52.588;22.472;2022-12-15T03:24:49;28.00;;;17.48;;
34035;SDS011;63481;52.588;22.472;2022-12-15T03:25:39;31.10;;;17.05;;
34035;SDS011;63481;52.588;22.472;2022-12-15T03:26:29;26.27;;;17.02;;
34035;SDS011;63481;52.588;22.472;2022-12-15T03:27:19;27.07;;;17.40;;
34035;SDS011;63481;52.588;22.472;2022-12-15T03:28:09;27.45;;;17.23;;
34035;SDS011;63481;52.588;22.472;2022-12-15T03:29:02;27.40;;;17.24;;
34035;SDS011;63481;52.588;22.472;2022-12-15T03:30:42;25.43;;;15.28;;
34035;SDS011;63481;52.588;22.472;2022-12-15T03:31:32;27.00;;;16.65;;
34035;SDS011;63481;52.588;22.472;2022-12-15T03:33:16;25.36;;;15.84;;
34035;SDS011;63481;52.588;22.472;2022-12-15T03:34:07;27.13;;;16.55;;
34035;SDS011;63481;52.588;22.472;2022-12-15T03:34:58;25.85;;;15.98;;
34035;SDS011;63481;52.588;22.472;2022-12-15T03:35:52;27.76;;;17.66;;
34035;SDS011;63481;52.588;22.472;2022-12-15T03:36:42;25.60;;;15.92;;
34035;SDS011;63481;52.588;22.472;2022-12-15T03:37:33;26.70;;;17.16;;
34035;SDS011;63481;52.588;22.472;2022-12-15T03:38:23;26.95;;;16.67;;
34035;SDS011;63481;52.588;22.472;2022-12-15T03:39:14;26.33;;;16.65;;
34035;SDS011;63481;52.588;22.472;2022-12-15T03:40:04;27.25;;;16.52;;
34035;SDS011;63481;52.588;22.472;2022-12-15T03:40:55;27.34;;;17.12;;
34035;SDS011;63481;52.588;22.472;2022-12-15T03:41:46;25.90;;;16.46;;
34035;SDS011;63481;52.588;22.472;2022-12-15T03:42:36;27.15;;;16.95;;
34035;SDS011;63481;52.588;22.472;2022-12-15T03:43:38;26.26;;;15.94;;
34035;SDS011;63481;52.588;22.472;2022-12-15T03:44:28;28.90;;;16.67;;
34035;SDS011;63481;52.588;22.472;2022-12-15T03:45:19;26.62;;;16.60;;
34035;SDS011;63481;52.588;22.472;2022-12-15T03:46:11;26.10;;;15.94;;
34035;SDS011;63481;52.588;22.472;2022-12-15T03:47:01;27.55;;;17.10;;
34035;SDS011;63481;52.588;22.472;2022-12-15T03:48:43;26.26;;;14.98;;
34035;SDS011;63481;52.588;22.472;2022-12-15T03:49:34;27.96;;;17.24;;
34035;SDS011;63481;52.588;22.472;2022-12-15T03:50:25;27.62;;;16.92;;
34035;SDS011;63481;52.588;22.472;2022-12-15T03:51:17;27.02;;;16.38;;
34035;SDS011;63481;52.588;22.472;2022-12-15T03:52:08;27.40;;;16.88;;
34035;SDS011;63481;52.588;22.472;2022-12-15T03:53:02;27.76;;;17.08;;
34035;SDS011;63481;52.588;22.472;2022-12-15T03:53:53;28.28;;;17.48;;
34035;SDS011;63481;52.588;22.472;2022-12-15T03:54:44;28.58;;;17.88;;
34035;SDS011;63481;52.588;22.472;2022-12-15T03:56:25;26.90;;;16.27;;
34035;SDS011;63481;52.588;22.472;2022-12-15T03:57:15;27.37;;;17.20;;
34035;SDS011;63481;52.588;22.472;2022-12-15T03:58:55;28.57;;;15.95;;
34035;SDS011;63481;52.588;22.472;2022-12-15T03:59:46;28.70;;;17.98;;
34035;SDS011;63481;52.588;22.472;2022-12-15T04:00:37;29.72;;;17.22;;
34035;SDS011;63481;52.588;22.472;2022-12-15T04:01:29;27.22;;;16.66;;
34035;SDS011;63481;52.588;22.472;2022-12-15T04:02:21;27.76;;;17.58;;
34035;SDS011;63481;52.588;22.472;2022-12-15T04:04:05;28.24;;;16.64;;
34035;SDS011;63481;52.588;22.472;2022-12-15T04:04:55;25.62;;;15.38;;
34035;SDS011;63481;52.588;22.472;2022-12-15T04:06:38;27.82;;;16.62;;
34035;SDS011;63481;52.588;22.472;2022-12-15T04:07:28;28.92;;;17.20;;
34035;SDS011;63481;52.588;22.472;2022-12-15T04:08:19;27.38;;;16.38;;
34035;SDS011;63481;52.588;22.472;2022-12-15T04:09:11;25.30;;;16.42;;
34035;SDS011;63481;52.588;22.472;2022-12-15T04:10:52;25.90;;;15.15;;
34035;SDS011;63481;52.588;22.472;2022-12-15T04:11:42;25.97;;;15.53;;
34035;SDS011;63481;52.588;22.472;2022-12-15T04:12:33;27.98;;;16.70;;
34035;SDS011;63481;52.588;22.472;2022-12-15T04:13:26;28.76;;;16.64;;
34035;SDS011;63481;52.588;22.472;2022-12-15T04:14:16;28.86;;;17.54;;
34035;SDS011;63481;52.588;22.472;2022-12-15T04:15:10;27.52;;;17.74;;
34035;SDS011;63481;52.588;22.472;2022-12-15T04:16:01;31.18;;;18.02;;
34035;SDS011;63481;52.588;22.472;2022-12-15T04:16:52;26.78;;;17.90;;
34035;SDS011;63481;52.588;22.472;2022-12-15T04:17:42;26.20;;;16.94;;
34035;SDS011;63481;52.588;22.472;2022-12-15T04:18:34;27.86;;;17.74;;
34035;SDS011;63481;52.588;22.472;2022-12-15T04:19:24;28.36;;;18.28;;
34035;SDS011;63481;52.588;22.472;2022-12-15T04:20:33;27.16;;;16.90;;
34035;SDS011;63481;52.588;22.472;2022-12-15T04:21:23;25.62;;;16.62;;
34035;SDS011;63481;52.588;22.472;2022-12-15T04:23:04;33.23;;;18.15;;
34035;SDS011;63481;52.588;22.472;2022-12-15T04:23:57;27.96;;;17.20;;
34035;SDS011;63481;52.588;22.472;2022-12-15T04:25:08;28.02;;;15.98;;
34035;SDS011;63481;52.588;22.472;2022-12-15T04:26:18;28.90;;;17.10;;
34035;SDS011;63481;52.588;22.472;2022-12-15T04:27:27;29.12;;;17.40;;
34035;SDS011;63481;52.588;22.472;2022-12-15T04:28:36;26.58;;;16.32;;
34035;SDS011;63481;52.588;22.472;2022-12-15T04:29:44;25.52;;;15.82;;
34035;SDS011;63481;52.588;22.472;2022-12-15T04:30:55;27.56;;;16.90;;
34035;SDS011;63481;52.588;22.472;2022-12-15T04:32:09;28.58;;;16.20;;
34035;SDS011;63481;52.588;22.472;2022-12-15T04:33:18;29.22;;;16.56;;
34035;SDS011;63481;52.588;22.472;2022-12-15T04:35:37;26.16;;;14.70;;
34035;SDS011;63481;52.588;22.472;2022-12-15T04:36:47;27.22;;;16.06;;
34035;SDS011;63481;52.588;22.472;2022-12-15T04:37:59;28.48;;;17.14;;
34035;SDS011;63481;52.588;22.472;2022-12-15T04:39:18;26.37;;;15.85;;
34035;SDS011;63481;52.588;22.472;2022-12-15T04:40:27;29.34;;;16.52;;
34035;SDS011;63481;52.588;22.472;2022-12-15T04:41:37;26.22;;;15.92;;
34035;SDS011;63481;52.588;22.472;2022-12-15T04:42:46;28.06;;;16.54;;
34035;SDS011;63481;52.588;22.472;2022-12-15T04:43:55;29.00;;;17.52;;
34035;SDS011;63481;52.588;22.472;2022-12-15T04:45:05;29.40;;;17.65;;
34035;SDS011;63481;52.588;22.472;2022-12-15T04:46:16;24.76;;;15.74;;
34035;SDS011;63481;52.588;22.472;2022-12-15T04:47:26;27.20;;;15.88;;
34035;SDS011;63481;52.588;22.472;2022-12-15T04:48:34;29.50;;;16.68;;
34035;SDS011;63481;52.588;22.472;2022-12-15T04:49:43;27.18;;;16.16;;
34035;SDS011;63481;52.588;22.472;2022-12-15T04:50:52;27.38;;;17.00;;
34035;SDS011;63481;52.588;22.472;2022-12-15T04:52:01;27.36;;;16.22;;
34035;SDS011;63481;52.588;22.472;2022-12-15T04:53:14;28.80;;;17.72;;
34035;SDS011;63481;52.588;22.472;2022-12-15T04:54:22;28.88;;;18.44;;
34035;SDS011;63481;52.588;22.472;2022-12-15T04:55:34;30.36;;;18.12;;
34035;SDS011;63481;52.588;22.472;2022-12-15T04:56:44;29.90;;;19.20;;
34035;SDS011;63481;52.588;22.472;2022-12-15T04:57:53;29.74;;;17.26;;
34035;SDS011;63481;52.588;22.472;2022-12-15T04:59:04;25.66;;;16.06;;
34035;SDS011;63481;52.588;22.472;2022-12-15T05:00:14;27.45;;;17.65;;
34035;SDS011;63481;52.588;22.472;2022-12-15T05:01:23;28.04;;;16.16;;
34035;SDS011;63481;52.588;22.472;2022-12-15T05:02:32;26.46;;;15.88;;
34035;SDS011;63481;52.588;22.472;2022-12-15T05:03:41;29.80;;;17.80;;
34035;SDS011;63481;52.588;22.472;2022-12-15T05:04:50;27.22;;;18.06;;
34035;SDS011;63481;52.588;22.472;2022-12-15T05:05:59;28.92;;;18.42;;
34035;SDS011;63481;52.588;22.472;2022-12-15T05:07:10;30.38;;;17.70;;
34035;SDS011;63481;52.588;22.472;2022-12-15T05:08:19;28.60;;;17.20;;
34035;SDS011;63481;52.588;22.472;2022-12-15T05:09:28;28.42;;;17.92;;
34035;SDS011;63481;52.588;22.472;2022-12-15T05:10:38;28.46;;;17.22;;
34035;SDS011;63481;52.588;22.472;2022-12-15T05:11:46;29.28;;;17.02;;
34035;SDS011;63481;52.588;22.472;2022-12-15T05:13:02;27.86;;;17.50;;
34035;SDS011;63481;52.588;22.472;2022-12-15T05:14:13;30.40;;;18.92;;
34035;SDS011;63481;52.588;22.472;2022-12-15T05:15:22;29.12;;;18.04;;
34035;SDS011;63481;52.588;22.472;2022-12-15T05:16:30;31.00;;;20.16;;
34035;SDS011;63481;52.588;22.472;2022-12-15T05:17:41;27.74;;;17.64;;
34035;SDS011;63481;52.588;22.472;2022-12-15T05:18:50;28.46;;;17.40;;
34035;SDS011;63481;52.588;22.472;2022-12-15T05:19:59;26.00;;;16.80;;
34035;SDS011;63481;52.588;22.472;2022-12-15T05:21:08;31.50;;;18.18;;
34035;SDS011;63481;52.588;22.472;2022-12-15T05:22:17;28.80;;;17.54;;
34035;SDS011;63481;52.588;22.472;2022-12-15T05:23:27;28.00;;;17.20;;
34035;SDS011;63481;52.588;22.472;2022-12-15T05:24:35;27.90;;;16.98;;
34035;SDS011;63481;52.588;22.472;2022-12-15T05:25:44;29.98;;;18.04;;
34035;SDS011;63481;52.588;22.472;2022-12-15T05:26:53;28.00;;;17.32;;
34035;SDS011;63481;52.588;22.472;2022-12-15T05:28:04;29.74;;;17.76;;
34035;SDS011;63481;52.588;22.472;2022-12-15T05:29:13;30.20;;;17.68;;
34035;SDS011;63481;52.588;22.472;2022-12-15T05:30:22;27.60;;;16.84;;
34035;SDS011;63481;52.588;22.472;2022-12-15T05:31:31;28.18;;;17.14;;
34035;SDS011;63481;52.588;22.472;2022-12-15T05:32:40;28.74;;;17.36;;
34035;SDS011;63481;52.588;22.472;2022-12-15T05:33:31;28.34;;;18.36;;
34035;SDS011;63481;52.588;22.472;2022-12-15T05:34:22;29.35;;;18.52;;
34035;SDS011;63481;52.588;22.472;2022-12-15T05:35:15;30.30;;;19.00;;
34035;SDS011;63481;52.588;22.472;2022-12-15T05:36:07;29.32;;;18.84;;
34035;SDS011;63481;52.588;22.472;2022-12-15T05:36:58;31.20;;;18.72;;
34035;SDS011;63481;52.588;22.472;2022-12-15T05:37:50;30.86;;;18.92;;
34035;SDS011;63481;52.588;22.472;2022-12-15T05:39:30;31.65;;;17.27;;
34035;SDS011;63481;52.588;22.472;2022-12-15T05:40:20;28.38;;;17.50;;
34035;SDS011;63481;52.588;22.472;2022-12-15T05:41:10;34.13;;;19.42;;
34035;SDS011;63481;52.588;22.472;2022-12-15T05:42:01;32.78;;;19.00;;
34035;SDS011;63481;52.588;22.472;2022-12-15T05:42:52;30.72;;;18.88;;
34035;SDS011;63481;52.588;22.472;2022-12-15T05:43:47;33.10;;;20.68;;
34035;SDS011;63481;52.588;22.472;2022-12-15T05:44:40;32.76;;;19.48;;
34035;SDS011;63481;52.588;22.472;2022-12-15T05:45:30;30.10;;;18.80;;
34035;SDS011;63481;52.588;22.472;2022-12-15T05:47:10;32.98;;;18.27;;
34035;SDS011;63481;52.588;22.472;2022-12-15T05:48:01;29.20;;;17.96;;
34035;SDS011;63481;52.588;22.472;2022-12-15T05:48:52;30.92;;;18.72;;
34035;SDS011;63481;52.588;22.472;2022-12-15T05:50:33;29.02;;;17.77;;
34035;SDS011;63481;52.588;22.472;2022-12-15T05:52:13;28.50;;;17.20;;
34035;SDS011;63481;52.588;22.472;2022-12-15T05:53:04;28.05;;;17.55;;
34035;SDS011;63481;52.588;22.472;2022-12-15T05:53:54;34.66;;;19.96;;
34035;SDS011;63481;52.588;22.472;2022-12-15T05:54:45;29.06;;;18.22;;
34035;SDS011;63481;52.588;22.472;2022-12-15T05:56:26;31.23;;;17.12;;
34035;SDS011;63481;52.588;22.472;2022-12-15T05:57:20;31.12;;;18.54;;
34035;SDS011;63481;52.588;22.472;2022-12-15T05:58:10;30.32;;;17.94;;
34035;SDS011;63481;52.588;22.472;2022-12-15T05:59:01;30.20;;;18.84;;
34035;SDS011;63481;52.588;22.472;2022-12-15T05:59:53;32.38;;;19.94;;
34035;SDS011;63481;52.588;22.472;2022-12-15T06:00:43;30.27;;;18.37;;
34035;SDS011;63481;52.588;22.472;2022-12-15T06:01:35;28.34;;;18.32;;
34035;SDS011;63481;52.588;22.472;2022-12-15T06:02:28;29.98;;;18.96;;
34035;SDS011;63481;52.588;22.472;2022-12-15T06:03:19;34.86;;;20.72;;
34035;SDS011;63481;52.588;22.472;2022-12-15T06:04:12;31.50;;;18.66;;
34035;SDS011;63481;52.588;22.472;2022-12-15T06:05:05;28.06;;;17.44;;
34035;SDS011;63481;52.588;22.472;2022-12-15T06:05:57;32.02;;;18.88;;
34035;SDS011;63481;52.588;22.472;2022-12-15T06:06:48;32.10;;;20.50;;
34035;SDS011;63481;52.588;22.472;2022-12-15T06:07:38;33.95;;;19.05;;
34035;SDS011;63481;52.588;22.472;2022-12-15T06:08:31;30.82;;;17.94;;
34035;SDS011;63481;52.588;22.472;2022-12-15T06:09:24;32.26;;;18.70;;
34035;SDS011;63481;52.588;22.472;2022-12-15T06:10:14;31.20;;;18.67;;
34035;SDS011;63481;52.588;22.472;2022-12-15T06:11:04;33.40;;;19.12;;
34035;SDS011;63481;52.588;22.472;2022-12-15T06:11:55;28.56;;;17.84;;
34035;SDS011;63481;52.588;22.472;2022-12-15T06:13:36;30.17;;;17.65;;
34035;SDS011;63481;52.588;22.472;2022-12-15T06:14:29;30.26;;;18.52;;
34035;SDS011;63481;52.588;22.472;2022-12-15T06:15:20;31.16;;;18.62;;
34035;SDS011;63481;52.588;22.472;2022-12-15T06:16:18;31.12;;;18.92;;
34035;SDS011;63481;52.588;22.472;2022-12-15T06:17:06;29.80;;;18.22;;
34035;SDS011;63481;52.588;22.472;2022-12-15T06:18:48;26.85;;;16.40;;
34035;SDS011;63481;52.588;22.472;2022-12-15T06:19:40;30.26;;;18.56;;